Time;durP1;ratioP1;P1;durP2;ratioP2;P2;SDS_P1;SDS_P2;PMS_P1;PMS_P2;Temp;Humidity;BMP_temperature;BMP_pressure;BME280_temperature;BME280_humidity;BME280_pressure;Samples;Min_cycle;Max_cycle;Signal;HPM_P1;HPM_P2
2022/08/28 00:01:54;;;;;;;11.95;2.70;;;;;;;19.10;57.21;101307.69;5093084;28;20123;-54
2022/08/28 00:04:21;;;;;;;15.32;2.60;;;;;;;19.04;57.26;101312.00;5092630;28;20079;-55
2022/08/28 00:06:48;;;;;;;15.45;2.70;;;;;;;19.22;56.70;101319.56;5093526;28;20053;-55
2022/08/28 00:09:14;;;;;;;15.80;2.60;;;;;;;19.12;57.11;101309.19;5093253;28;20138;-54
2022/08/28 00:11:41;;;;;;;12.77;2.70;;;;;;;19.10;57.62;101313.94;5073188;28;20036;-54
2022/08/28 00:14:09;;;;;;;15.73;2.67;;;;;;;19.02;57.18;101313.25;5073030;28;20048;-54
2022/08/28 00:16:37;;;;;;;15.02;2.75;;;;;;;18.93;57.78;101320.63;5073515;28;20044;-54
2022/08/28 00:19:04;;;;;;;15.05;2.97;;;;;;;18.90;57.73;101324.53;5073122;28;20045;-55
2022/08/28 00:21:32;;;;;;;14.27;2.72;;;;;;;18.83;58.27;101322.81;5073027;28;20127;-53
2022/08/28 00:23:59;;;;;;;12.88;2.80;;;;;;;18.80;57.79;101324.00;5035427;28;20118;-55
2022/08/28 00:29:13;;;;;;;12.52;2.70;;;;;;;18.72;58.72;101334.88;5072583;28;20059;-54
2022/08/28 00:31:39;;;;;;;13.73;2.33;;;;;;;18.70;58.33;101334.25;5091001;28;20140;-54
2022/08/28 00:34:08;;;;;;;18.23;3.13;;;;;;;18.88;58.45;101325.75;5093320;28;20067;-53
2022/08/28 00:36:36;;;;;;;19.35;3.17;;;;;;;18.92;57.47;101327.84;5093219;28;20486;-51
2022/08/28 00:39:05;;;;;;;14.20;3.38;;;;;;;18.88;57.75;101326.59;5089747;28;20052;-52
2022/08/28 00:41:33;;;;;;;17.02;2.88;;;;;;;18.87;57.94;101326.78;5093068;28;20076;-53
2022/08/28 00:44:11;;;;;;;20.73;3.08;;;;;;;18.88;57.75;101323.91;5089304;28;20983;-54
2022/08/28 00:46:40;;;;;;;11.55;2.70;;;;;;;18.66;57.91;101323.03;5092976;28;20131;-53
2022/08/28 00:49:07;;;;;;;14.35;2.90;;;;;;;18.59;58.12;101320.31;5095626;28;20044;-54
2022/08/28 00:52:08;;;;;;;16.90;2.92;;;;;;;18.75;57.96;101324.56;5096526;28;20531;-51
2022/08/28 00:54:25;;;;;;;16.67;3.42;;;;;;;18.55;58.23;101320.88;5096654;28;20405;-51
2022/08/28 00:56:54;;;;;;;13.45;3.20;;;;;;;18.50;58.25;101329.53;5096399;28;20452;-53
2022/08/28 00:59:23;;;;;;;17.25;3.22;;;;;;;18.48;58.29;101331.59;5096713;28;20044;-52
2022/08/28 01:01:55;;;;;;;15.20;3.50;;;;;;;18.40;58.81;101324.47;5095501;28;20491;-54
2022/08/28 01:04:24;;;;;;;17.95;3.30;;;;;;;18.45;58.36;101334.66;5096423;28;20048;-53
2022/08/28 01:06:54;;;;;;;22.42;3.28;;;;;;;18.45;58.46;101331.97;5096218;28;20214;-52
2022/08/28 01:09:25;;;;;;;16.05;3.40;;;;;;;18.47;58.23;101329.91;5096397;28;20047;-53
2022/08/28 01:11:57;;;;;;;18.55;3.00;;;;;;;18.39;58.71;101335.41;5096181;28;20127;-53
2022/08/28 01:14:25;;;;;;;16.25;3.03;;;;;;;18.38;58.38;101331.88;5094664;28;20052;-53
2022/08/28 01:16:54;;;;;;;25.67;3.08;;;;;;;18.37;58.75;101334.75;5096269;28;20086;-52
2022/08/28 01:19:30;;;;;;;15.48;3.53;;;;;;;18.28;58.64;101342.13;5095988;28;20047;-54
2022/08/28 01:22:24;;;;;;;14.95;3.42;;;;;;;18.30;58.96;101339.22;5095618;28;20048;-53
2022/08/28 01:24:54;;;;;;;21.63;3.60;;;;;;;18.33;58.55;101339.69;5076481;28;20098;-53
2022/08/28 01:27:22;;;;;;;19.05;3.83;;;;;;;18.34;59.35;101337.84;5095885;28;20676;-55
2022/08/28 01:29:49;;;;;;;21.48;3.85;;;;;;;18.30;59.04;101342.78;5095897;28;20402;-54
2022/08/28 01:32:36;;;;;;;18.83;4.00;;;;;;;18.33;58.76;101338.84;5096120;28;20044;-55
2022/08/28 01:35:09;;;;;;;18.33;3.92;;;;;;;18.20;58.46;101334.19;5095612;28;20048;-55
2022/08/28 01:37:36;;;;;;;19.33;3.60;;;;;;;18.15;58.68;101340.09;5096120;28;20123;-55
2022/08/28 01:40:05;;;;;;;21.33;4.00;;;;;;;18.14;58.97;101346.50;5094738;28;20055;-54
2022/08/28 01:42:37;;;;;;;20.17;4.07;;;;;;;18.23;58.23;101348.06;5095951;28;20048;-55
2022/08/28 01:45:09;;;;;;;23.83;4.40;;;;;;;18.37;57.79;101349.03;5095528;28;20052;-55
2022/08/28 01:47:38;;;;;;;15.10;3.90;;;;;;;18.33;58.42;101350.41;5090704;28;20132;-54
2022/08/28 01:50:06;;;;;;;14.15;4.40;;;;;;;18.10;58.64;101350.59;5095288;28;20086;-54
2022/08/28 01:52:35;;;;;;;19.20;4.32;;;;;;;18.00;58.92;101355.44;5095606;28;20160;-54
2022/08/28 01:55:03;;;;;;;18.98;4.28;;;;;;;17.96;58.95;101354.97;5095560;28;20405;-55
2022/08/28 01:57:31;;;;;;;21.25;4.32;;;;;;;18.13;58.72;101360.94;5095677;28;20546;-55
2022/08/28 01:59:58;;;;;;;15.70;4.53;;;;;;;18.15;58.43;101355.38;5095012;28;20071;-54
2022/08/28 02:02:25;;;;;;;17.75;4.55;;;;;;;18.16;58.37;101362.44;5095039;28;20044;-55
2022/08/28 02:04:52;;;;;;;15.95;4.38;;;;;;;18.15;58.66;101352.69;5094649;28;20052;-55
2022/08/28 02:07:19;;;;;;;18.67;4.57;;;;;;;17.92;59.16;101355.53;5095438;28;20044;-55
2022/08/28 02:09:46;;;;;;;23.75;4.80;;;;;;;17.79;59.75;101359.69;5095068;28;20497;-54
2022/08/28 02:12:12;;;;;;;22.02;4.78;;;;;;;17.55;60.23;101352.75;5095562;28;20047;-54
2022/08/28 02:14:40;;;;;;;24.48;5.20;;;;;;;17.71;60.30;101346.38;5095267;28;20089;-55
2022/08/28 02:17:06;;;;;;;20.90;5.10;;;;;;;17.75;60.00;101354.88;5095423;28;20051;-54
2022/08/28 02:19:33;;;;;;;19.25;4.80;;;;;;;17.71;60.23;101354.41;5095002;28;20048;-55
2022/08/28 02:22:00;;;;;;;18.60;5.18;;;;;;;17.78;60.16;101363.38;5095179;28;20097;-54
2022/08/28 02:24:26;;;;;;;20.88;5.15;;;;;;;17.86;60.33;101367.00;5057211;28;20139;-54
2022/08/28 02:26:53;;;;;;;25.17;4.93;;;;;;;17.76;60.19;101364.59;5095040;28;20101;-55
2022/08/28 02:29:20;;;;;;;23.77;5.13;;;;;;;17.74;60.35;101366.63;5094656;28;20117;-54
2022/08/28 02:31:47;;;;;;;18.58;4.82;;;;;;;17.58;60.43;101373.84;5094648;28;20075;-54
2022/08/28 02:34:13;;;;;;;22.95;5.18;;;;;;;17.57;60.63;101382.94;5094225;28;20048;-54
2022/08/28 02:36:41;;;;;;;17.70;4.88;;;;;;;17.48;61.03;101384.00;5094824;28;20036;-55
2022/08/28 02:39:09;;;;;;;20.10;5.00;;;;;;;17.54;60.93;101388.66;5094451;28;20070;-55
2022/08/28 02:41:36;;;;;;;16.30;4.70;;;;;;;17.54;60.94;101380.59;5094475;28;20460;-54
2022/08/28 02:44:03;;;;;;;20.02;5.47;;;;;;;17.40;61.09;101387.59;5094105;28;20043;-53
2022/08/28 02:46:30;;;;;;;19.05;5.13;;;;;;;17.24;61.67;101382.41;5094574;28;20059;-54
2022/08/28 02:48:57;;;;;;;23.75;5.35;;;;;;;17.31;61.73;101383.34;5091105;28;20044;-53
2022/08/28 02:51:24;;;;;;;17.05;4.88;;;;;;;17.30;61.89;101383.53;5094520;28;20406;-53
2022/08/28 02:53:51;;;;;;;20.35;5.45;;;;;;;17.31;61.78;101379.84;5094646;28;20044;-54
2022/08/28 02:56:18;;;;;;;17.90;5.07;;;;;;;17.31;62.02;101377.97;5094182;28;20048;-54
2022/08/28 02:58:44;;;;;;;23.30;5.47;;;;;;;17.31;61.56;101377.16;5094623;28;20440;-54
2022/08/28 03:01:12;;;;;;;21.88;5.50;;;;;;;17.43;61.51;101381.88;5093671;28;20075;-53
2022/08/28 03:03:40;;;;;;;21.95;5.50;;;;;;;17.43;61.49;101375.69;5093826;28;20505;-54
2022/08/28 03:06:07;;;;;;;21.20;5.40;;;;;;;17.47;62.08;101382.34;5093714;28;20093;-53
2022/08/28 03:08:34;;;;;;;21.00;5.43;;;;;;;17.27;61.85;101398.97;5094163;28;20059;-53
2022/08/28 03:11:00;;;;;;;25.17;5.07;;;;;;;17.29;62.33;101400.66;5093686;28;20481;-54
2022/08/28 03:13:27;;;;;;;25.67;5.40;;;;;;;17.35;62.30;101402.59;5093795;28;20119;-54
2022/08/28 03:15:55;;;;;;;15.90;4.90;;;;;;;17.41;61.82;101400.00;5092085;28;20044;-53
2022/08/28 03:18:24;;;;;;;26.30;5.75;;;;;;;17.24;62.01;101407.38;5092717;28;20040;-54
2022/08/28 03:20:50;;;;;;;20.73;5.60;;;;;;;17.33;62.20;101409.97;5093065;28;20047;-53
2022/08/28 03:23:32;;;;;;;30.13;5.40;;;;;;;17.42;61.86;101406.19;5055900;28;20040;-54
2022/08/28 03:26:00;;;;;;;;;;;;;;;17.21;62.29;101420.31;5094168;28;20134;-54
2022/08/28 03:28:31;;;;;;;20.00;4.80;;;;;;;17.15;62.64;101408.44;5093828;28;20331;-54
2022/08/28 03:30:58;;;;;;;22.42;5.55;;;;;;;17.22;62.19;101414.75;5093251;28;20044;-54
2022/08/28 03:33:26;;;;;;;19.88;4.70;;;;;;;17.30;61.98;101410.34;5093537;28;20051;-54
2022/08/28 03:35:54;;;;;;;20.33;5.25;;;;;;;17.22;62.09;101413.94;5093593;28;20048;-53
2022/08/28 03:38:21;;;;;;;23.45;5.40;;;;;;;17.23;61.93;101413.75;5093851;28;20060;-54
2022/08/28 03:40:48;;;;;;;25.00;5.82;;;;;;;17.25;62.10;101417.09;5094451;28;20085;-54
2022/08/28 03:43:20;;;;;;;21.48;5.05;;;;;;;17.25;62.36;101416.25;5093649;28;20036;-54
2022/08/28 03:45:57;;;;;;;21.70;4.90;;;;;;;17.32;62.18;101414.53;5093474;28;20081;-53
2022/08/28 03:48:27;;;;;;;17.13;5.30;;;;;;;17.30;61.99;101411.19;5092359;28;20393;-53
2022/08/28 03:50:54;;;;;;;24.58;4.97;;;;;;;17.30;62.38;101424.59;5090122;28;20052;-52
2022/08/28 03:53:23;;;;;;;23.00;5.43;;;;;;;17.19;62.46;101427.69;5090291;28;20036;-55
2022/08/28 03:55:51;;;;;;;22.55;5.43;;;;;;;17.12;62.30;101426.75;5093554;28;20044;-54
2022/08/28 03:58:18;;;;;;;25.33;5.22;;;;;;;17.13;62.64;101434.63;5093657;28;20083;-54
2022/08/28 04:00:46;;;;;;;20.13;4.90;;;;;;;17.11;62.56;101436.66;5093191;28;20443;-54
2022/08/28 04:03:12;;;;;;;25.30;5.43;;;;;;;17.12;62.70;101432.97;5093173;28;20064;-54
2022/08/28 04:05:40;;;;;;;26.50;5.43;;;;;;;17.07;62.79;101429.97;5092881;28;20075;-54
2022/08/28 04:08:08;;;;;;;27.52;5.60;;;;;;;17.14;62.87;101435.47;5093200;28;20485;-53
2022/08/28 04:10:35;;;;;;;23.77;5.75;;;;;;;17.06;62.73;101437.19;5093110;28;20082;-54
2022/08/28 04:13:02;;;;;;;24.83;5.68;;;;;;;17.03;63.09;101436.72;5093499;28;20048;-54
2022/08/28 04:15:29;;;;;;;21.48;5.80;;;;;;;16.93;63.34;101434.28;5093378;28;20048;-54
2022/08/28 04:17:55;;;;;;;24.15;5.00;;;;;;;17.01;62.91;101441.44;5093493;28;20077;-55
2022/08/28 04:20:22;;;;;;;22.75;5.28;;;;;;;17.00;63.19;101448.63;5092754;28;20055;-54
2022/08/28 04:22:49;;;;;;;19.13;5.07;;;;;;;17.01;63.28;101454.84;5054683;28;20059;-54
2022/08/28 04:25:16;;;;;;;24.35;4.97;;;;;;;17.11;63.26;101452.72;5095758;28;20044;-54
2022/08/28 04:27:43;;;;;;;27.02;4.82;;;;;;;17.06;62.69;101452.44;5097343;28;20044;-54
2022/08/28 04:30:11;;;;;;;22.95;4.97;;;;;;;16.96;63.33;101450.00;5096627;28;20389;-54
2022/08/28 04:32:38;;;;;;;19.90;5.32;;;;;;;16.89;63.29;101454.41;5097304;28;20474;-55
2022/08/28 04:35:08;;;;;;;19.08;4.70;;;;;;;16.94;62.97;101459.25;5096652;28;20131;-54
2022/08/28 04:37:36;;;;;;;20.42;4.97;;;;;;;16.78;63.68;101455.63;5096003;28;20566;-55
2022/08/28 04:40:06;;;;;;;24.20;4.88;;;;;;;16.83;63.63;101457.81;5097007;28;20059;-53
2022/08/28 04:42:33;;;;;;;17.75;4.57;;;;;;;16.85;63.78;101458.47;5097053;28;20125;-53
2022/08/28 04:45:00;;;;;;;21.50;4.70;;;;;;;16.92;63.63;101469.28;5096832;28;20109;-52
2022/08/28 04:47:29;;;;;;;23.48;4.95;;;;;;;16.91;63.60;101467.63;5096811;28;20040;-54
2022/08/28 04:49:57;;;;;;;15.43;4.85;;;;;;;16.96;63.51;101455.38;5096838;28;20056;-54
2022/08/28 04:52:23;;;;;;;18.95;5.15;;;;;;;16.89;63.70;101463.25;5096686;28;20044;-54
2022/08/28 04:54:50;;;;;;;17.52;4.20;;;;;;;16.94;63.37;101461.94;5093509;28;20119;-55
2022/08/28 04:57:17;;;;;;;18.90;4.28;;;;;;;16.84;63.54;101464.81;5096799;28;20052;-54
2022/08/28 04:59:44;;;;;;;20.33;4.30;;;;;;;16.92;63.96;101474.63;5093222;28;20048;-54
2022/08/28 05:02:11;;;;;;;22.40;4.28;;;;;;;16.70;63.70;101469.91;5096103;28;20051;-54
2022/08/28 05:04:37;;;;;;;21.80;4.47;;;;;;;16.82;63.83;101474.84;5095934;28;20032;-53
2022/08/28 05:07:04;;;;;;;19.88;4.40;;;;;;;16.81;64.03;101468.66;5096362;28;20493;-55
2022/08/28 05:09:31;;;;;;;21.55;4.65;;;;;;;16.78;64.13;101474.38;5096759;28;20044;-54
2022/08/28 05:12:02;;;;;;;19.85;4.30;;;;;;;16.77;64.04;101485.25;5096075;28;20036;-54
2022/08/28 05:14:29;;;;;;;21.40;4.05;;;;;;;16.65;64.57;101479.47;5096518;28;20093;-54
2022/08/28 05:16:57;;;;;;;19.70;4.38;;;;;;;16.77;64.71;101485.25;5096392;28;20072;-54
2022/08/28 05:19:25;;;;;;;17.55;4.53;;;;;;;16.90;64.17;101488.25;5096237;28;20066;-56
2022/08/28 05:21:53;;;;;;;18.67;4.20;;;;;;;16.89;64.39;101489.25;5096331;28;20070;-53
2022/08/28 05:24:20;;;;;;;27.52;4.45;;;;;;;16.93;63.93;101487.03;5058249;28;20070;-54
2022/08/28 05:26:47;;;;;;;15.23;4.13;;;;;;;16.93;63.48;101493.22;5096078;28;20036;-52
2022/08/28 05:29:15;;;;;;;18.33;4.30;;;;;;;16.77;64.42;101493.28;5095810;28;20052;-54
2022/08/28 05:31:42;;;;;;;20.67;4.43;;;;;;;16.73;64.14;101495.50;5095598;28;20485;-53
2022/08/28 05:34:09;;;;;;;18.35;3.88;;;;;;;16.65;64.59;101503.59;5095316;28;20512;-54
2022/08/28 05:36:37;;;;;;;25.60;4.22;;;;;;;16.73;64.44;101502.69;5096088;28;20055;-54
2022/08/28 05:39:09;;;;;;;20.05;4.15;;;;;;;16.74;64.63;101499.03;5096047;28;20580;-54
2022/08/28 05:41:38;;;;;;;21.38;4.28;;;;;;;16.56;64.96;101491.25;5094692;28;20114;-56
2022/08/28 05:44:09;;;;;;;22.13;4.43;;;;;;;16.56;65.11;101494.75;5095611;28;20489;-55
2022/08/28 05:46:38;;;;;;;17.73;4.20;;;;;;;16.55;64.67;101498.44;5096006;28;20058;-54
2022/08/28 05:49:06;;;;;;;18.58;4.55;;;;;;;16.56;65.01;101497.44;5095446;28;20101;-53
2022/08/28 05:51:39;;;;;;;16.02;4.00;;;;;;;16.57;65.19;101496.44;5095428;28;20442;-55
2022/08/28 05:54:07;;;;;;;12.88;3.65;;;;;;;16.63;64.71;101502.94;5095540;28;20051;-55
2022/08/28 05:56:37;;;;;;;23.17;4.10;;;;;;;16.54;64.68;101504.00;5095711;28;20079;-54
2022/08/28 05:59:05;;;;;;;20.83;4.18;;;;;;;16.57;64.89;101503.63;5095613;28;20040;-55
2022/08/28 06:01:37;;;;;;;25.55;3.83;;;;;;;16.76;64.53;101519.25;5091895;28;20097;-54
2022/08/28 06:04:09;;;;;;;14.65;3.65;;;;;;;16.83;64.51;101519.44;5094273;28;20526;-54
2022/08/28 06:06:38;;;;;;;21.48;4.40;;;;;;;16.93;63.98;101519.19;5092479;28;20501;-55
2022/08/28 06:09:09;;;;;;;21.63;4.15;;;;;;;16.87;64.17;101521.56;5095413;28;20079;-54
2022/08/28 06:11:37;;;;;;;17.73;4.05;;;;;;;16.93;63.74;101519.19;5095288;28;20493;-55
2022/08/28 06:14:08;;;;;;;20.90;4.25;;;;;;;16.99;63.46;101519.34;5095338;28;20131;-54
2022/08/28 06:16:38;;;;;;;16.52;3.92;;;;;;;16.86;63.32;101519.06;5095188;28;20040;-54
2022/08/28 06:19:08;;;;;;;13.27;3.33;;;;;;;16.94;63.40;101524.38;5095317;28;20048;-55
2022/08/28 06:21:36;;;;;;;18.40;4.00;;;;;;;16.88;63.53;101523.25;5095058;28;20068;-54
2022/08/28 06:24:03;;;;;;;16.17;4.03;;;;;;;16.97;64.04;101528.53;5057174;28;20067;-55
2022/08/28 06:26:30;;;;;;;21.13;4.10;;;;;;;16.94;63.95;101523.56;5094994;28;20052;-54
2022/08/28 06:29:00;;;;;;;17.20;4.13;;;;;;;17.06;63.45;101528.34;5094609;28;20044;-54
2022/08/28 06:31:28;;;;;;;18.65;3.42;;;;;;;17.07;63.50;101529.16;5094349;28;20052;-54
2022/08/28 06:33:59;;;;;;;17.88;4.15;;;;;;;17.13;62.77;101528.44;5094729;28;20032;-54
2022/08/28 06:36:27;;;;;;;19.33;3.55;;;;;;;17.10;62.83;101531.50;5094450;28;20067;-54
2022/08/28 06:38:57;;;;;;;16.95;3.90;;;;;;;17.13;63.13;101541.84;5094273;28;20044;-53
2022/08/28 06:41:26;;;;;;;20.73;4.85;;;;;;;17.02;63.03;101539.56;5094342;28;20079;-54
2022/08/28 06:43:53;;;;;;;18.13;4.30;;;;;;;17.06;63.39;101541.75;5094704;28;20086;-54
2022/08/28 06:46:20;;;;;;;28.35;4.10;;;;;;;16.97;63.40;101536.59;5093649;28;20528;-54
2022/08/28 06:48:47;;;;;;;17.85;3.90;;;;;;;17.18;62.94;101539.47;5093196;28;20497;-54
2022/08/28 06:51:14;;;;;;;17.38;3.65;;;;;;;17.23;63.26;101538.94;5094494;28;20044;-54
2022/08/28 06:53:43;;;;;;;18.33;4.25;;;;;;;17.17;62.90;101545.00;5094332;28;20044;-53
2022/08/28 06:56:14;;;;;;;25.77;4.40;;;;;;;17.24;62.72;101541.41;5094609;28;20044;-53
2022/08/28 06:58:42;;;;;;;;;;;;;;;17.19;62.62;101546.50;5094926;28;20052;-53
2022/08/28 07:01:12;;;;;;;23.30;3.80;;;;;;;17.04;63.25;101545.59;5094105;28;19927;-54
2022/08/28 07:03:39;;;;;;;18.90;3.88;;;;;;;17.23;63.48;101549.66;5093714;28;20051;-52
2022/08/28 07:06:08;;;;;;;24.27;6.60;;;;;;;17.31;62.86;101541.56;5094076;28;20048;-53
2022/08/28 07:08:36;;;;;;;18.08;3.83;;;;;;;17.36;62.60;101549.06;5082427;28;20052;-51
2022/08/28 07:11:13;;;;;;;20.73;5.72;;;;;;;17.32;62.14;101545.06;5090672;28;20562;-53
2022/08/28 07:13:41;;;;;;;17.67;3.88;;;;;;;17.02;62.99;101542.25;5093857;28;20040;-53
2022/08/28 07:16:09;;;;;;;21.95;3.58;;;;;;;17.07;63.18;101550.59;5094065;28;20074;-52
2022/08/28 07:18:36;;;;;;;17.15;3.85;;;;;;;17.12;63.19;101548.22;5078637;28;20397;-52
2022/08/28 07:21:02;;;;;;;20.10;3.72;;;;;;;17.13;63.47;101555.25;5090988;28;20070;-53
2022/08/28 07:23:31;;;;;;;24.98;5.15;;;;;;;17.29;63.30;101554.31;5053982;28;20044;-53
2022/08/28 07:25:59;;;;;;;16.70;3.92;;;;;;;17.27;63.12;101553.66;5093989;28;20044;-53
2022/08/28 07:28:25;;;;;;;21.17;5.00;;;;;;;17.40;63.04;101555.75;5093493;28;20055;-53
2022/08/28 07:30:58;;;;;;;18.15;3.88;;;;;;;17.45;62.47;101553.34;5093539;28;20043;-52
2022/08/28 07:33:26;;;;;;;21.63;3.88;;;;;;;17.26;62.63;101551.97;5093350;28;20060;-53
2022/08/28 07:35:55;;;;;;;20.95;4.95;;;;;;;17.45;62.48;101556.03;5093533;28;20040;-52
2022/08/28 07:38:23;;;;;;;19.52;3.67;;;;;;;17.44;62.38;101560.56;5093456;28;20497;-52
2022/08/28 07:40:51;;;;;;;19.63;3.72;;;;;;;17.45;62.34;101561.41;5093813;28;20493;-53
2022/08/28 07:46:08;;;;;;;20.42;3.75;;;;;;;17.72;61.80;101554.63;5093068;28;20094;-52
2022/08/28 07:48:36;;;;;;;17.80;3.88;;;;;;;17.88;61.25;101558.22;5093009;28;20402;-53
2022/08/28 07:51:04;;;;;;;23.25;4.10;;;;;;;17.76;61.40;101565.84;5093507;28;20048;-53
2022/08/28 07:53:31;;;;;;;24.92;4.00;;;;;;;17.88;60.38;101560.88;5093492;28;20113;-53
2022/08/28 07:56:01;;;;;;;15.98;3.58;;;;;;;17.92;60.23;101567.56;5093311;28;20082;-54
2022/08/28 07:58:29;;;;;;;16.35;3.63;;;;;;;18.03;59.77;101567.97;5093264;28;20048;-54
2022/08/28 08:00:56;;;;;;;20.02;3.85;;;;;;;17.72;59.96;101562.69;5091897;28;20062;-52
2022/08/28 08:03:24;;;;;;;18.02;3.40;;;;;;;17.78;59.76;101561.94;5093065;28;20067;-54
2022/08/28 08:05:56;;;;;;;17.40;3.28;;;;;;;17.73;59.94;101566.19;5093093;28;20065;-53
2022/08/28 08:08:23;;;;;;;16.85;3.42;;;;;;;17.82;59.92;101565.94;5093413;28;20112;-54
2022/08/28 08:11:00;;;;;;;15.43;4.00;;;;;;;17.91;59.47;101577.47;5092791;28;20044;-52
2022/08/28 08:13:29;;;;;;;18.83;4.90;;;;;;;17.92;59.08;101572.91;5089840;28;20055;-53
2022/08/28 08:16:06;;;;;;;16.73;3.53;;;;;;;18.04;59.35;101568.78;5089528;28;20040;-53
2022/08/28 08:18:34;;;;;;;23.77;3.67;;;;;;;18.18;59.15;101577.88;5093460;28;20040;-52
2022/08/28 08:21:04;;;;;;;16.67;4.30;;;;;;;18.37;58.75;101574.66;5092934;28;20051;-54
2022/08/28 08:23:33;;;;;;;20.55;3.67;;;;;;;18.41;57.27;101572.44;4964233;28;20036;-54
2022/08/28 08:26:05;;;;;;;17.15;3.70;;;;;;;18.44;57.08;101574.72;5092901;28;20537;-54
2022/08/28 08:28:33;;;;;;;22.95;4.47;;;;;;;18.47;57.11;101571.69;5092994;28;20064;-53
2022/08/28 08:31:10;;;;;;;21.77;3.70;;;;;;;18.60;56.16;101574.53;5092223;28;20080;-54
2022/08/28 08:33:41;;;;;;;17.52;3.65;;;;;;;18.60;56.62;101574.53;5093076;28;20039;-55
2022/08/28 08:36:10;;;;;;;16.42;3.70;;;;;;;18.70;56.43;101562.66;5093096;28;20048;-54
2022/08/28 08:38:38;;;;;;;20.10;3.75;;;;;;;18.74;54.82;101563.97;5092827;28;20071;-55
2022/08/28 08:41:16;;;;;;;25.13;3.58;;;;;;;18.57;55.25;101566.88;5092916;28;20050;-54
2022/08/28 08:43:59;;;;;;;19.63;3.40;;;;;;;18.61;55.34;101570.00;5092497;28;20468;-55
2022/08/28 08:47:05;;;;;;;20.55;3.75;;;;;;;18.66;56.03;101572.94;5092765;28;20458;-55
2022/08/28 08:49:37;;;;;;;20.98;3.50;;;;;;;18.66;55.58;101577.50;5092697;28;20048;-55
2022/08/28 08:52:34;;;;;;;21.07;3.60;;;;;;;18.76;55.57;101581.56;5093246;28;20382;-55
2022/08/28 08:55:26;;;;;;;17.05;3.67;;;;;;;19.11;55.57;101578.28;5093023;28;20036;-55
2022/08/28 08:58:03;;;;;;;19.60;3.95;;;;;;;19.42;54.67;101582.53;5093059;28;20102;-55
2022/08/28 09:00:35;;;;;;;17.85;3.70;;;;;;;19.40;54.68;101581.88;5092597;28;20420;-54
2022/08/28 09:03:11;;;;;;;14.60;3.60;;;;;;;19.43;54.12;101570.72;5092927;28;20055;-55
2022/08/28 09:05:45;;;;;;;18.33;3.60;;;;;;;19.16;54.71;101573.97;5092421;28;20040;-55
2022/08/28 09:08:21;;;;;;;19.02;4.00;;;;;;;19.27;54.32;101578.03;5092731;28;20143;-55
2022/08/28 09:10:59;;;;;;;21.58;3.88;;;;;;;19.39;54.15;101575.66;5096614;28;20055;-54
2022/08/28 09:13:38;;;;;;;18.48;3.92;;;;;;;19.37;54.43;101580.41;5096506;28;20048;-55
2022/08/28 09:16:16;;;;;;;18.17;3.53;;;;;;;19.59;54.15;101578.53;5096463;28;20055;-56
2022/08/28 09:18:44;;;;;;;19.95;3.97;;;;;;;19.74;52.58;101581.19;5090398;28;20044;-55
2022/08/28 09:21:10;;;;;;;15.07;3.90;;;;;;;19.85;52.71;101587.91;5096106;28;20396;-55
2022/08/28 09:23:37;;;;;;;18.17;3.65;;;;;;;19.85;51.77;101586.03;5054737;28;20036;-55
2022/08/28 09:26:08;;;;;;;19.13;4.18;;;;;;;20.18;51.72;101596.22;5095926;28;20040;-56
2022/08/28 09:28:37;;;;;;;24.48;4.18;;;;;;;20.61;50.29;101593.41;5075869;28;20114;-54
2022/08/28 09:31:10;;;;;;;17.95;3.60;;;;;;;20.76;49.06;101592.44;5075210;28;20048;-54
2022/08/28 09:33:50;;;;;;;15.43;3.75;;;;;;;21.00;48.54;101602.66;5075747;28;20094;-55
2022/08/28 09:36:35;;;;;;;16.35;3.60;;;;;;;21.57;46.91;101602.41;5075716;28;20040;-55
2022/08/28 09:39:23;;;;;;;15.98;3.63;;;;;;;21.96;45.93;101596.19;5075977;28;20076;-55
2022/08/28 09:44:59;;;;;;;20.92;3.15;;;;;;;23.17;42.84;101602.91;5131425;27;20387;-55
2022/08/28 09:53:15;;;;;;;17.00;3.75;;;;;;;23.53;40.78;101596.03;5111120;27;20351;-55
2022/08/28 09:56:06;;;;;;;17.65;3.75;;;;;;;23.57;40.29;101597.22;5110902;28;20447;-55
2022/08/28 09:58:39;;;;;;;15.95;3.63;;;;;;;23.20;40.52;101590.84;5111127;28;20542;-55
2022/08/28 10:01:36;;;;;;;18.15;3.85;;;;;;;22.56;42.38;101606.91;5111118;28;20044;-57
2022/08/28 10:04:22;;;;;;;18.52;3.50;;;;;;;23.14;41.06;101584.44;5110360;28;20123;-56
2022/08/28 10:06:58;;;;;;;20.35;3.30;;;;;;;23.50;40.68;101582.94;5110810;28;20040;-56
2022/08/28 10:09:53;;;;;;;13.57;3.50;;;;;;;23.47;39.61;101580.66;5110605;28;20088;-54
2022/08/28 10:13:00;;;;;;;14.98;3.55;;;;;;;23.90;39.89;101579.09;5110491;28;20043;-56
2022/08/28 10:18:36;;;;;;;17.17;3.72;;;;;;;24.27;38.22;101576.44;5110924;27;20379;-54
2022/08/28 10:21:14;;;;;;;17.50;3.75;;;;;;;23.91;38.22;101587.00;5111202;28;20101;-55
2022/08/28 10:27:05;;;;;;;16.25;3.30;;;;;;;24.33;37.91;101579.06;5107574;27;20351;-54
2022/08/28 10:30:11;;;;;;;17.00;3.55;;;;;;;23.85;38.55;101582.47;5110414;28;20460;-57
2022/08/28 10:35:37;;;;;;;18.27;3.63;;;;;;;23.37;39.30;101581.13;5110457;27;20351;-54
2022/08/28 10:38:12;;;;;;;13.68;3.67;;;;;;;23.35;39.56;101587.81;5111301;28;20043;-56
2022/08/28 10:40:58;;;;;;;14.52;3.78;;;;;;;23.60;39.00;101579.72;5111198;28;20040;-56
2022/08/28 10:43:33;;;;;;;12.18;3.70;;;;;;;23.96;38.82;101586.34;5111237;28;20064;-56
2022/08/28 10:46:04;;;;;;;15.05;3.20;;;;;;;24.28;37.75;101588.94;5111186;28;20043;-56
2022/08/28 10:48:40;;;;;;;20.48;3.60;;;;;;;24.24;37.83;101593.97;5110572;28;20040;-55
2022/08/28 10:51:16;;;;;;;16.50;3.53;;;;;;;24.17;37.54;101584.25;5109685;28;20052;-56
2022/08/28 10:53:50;;;;;;;17.30;3.38;;;;;;;24.19;37.73;101584.84;5110910;28;20044;-56
2022/08/28 10:56:22;;;;;;;12.13;3.10;;;;;;;23.87;37.22;101580.38;5109780;28;20054;-54
2022/08/28 10:58:57;;;;;;;15.93;3.67;;;;;;;23.58;38.53;101585.38;5110660;28;20396;-55
2022/08/28 11:01:29;;;;;;;14.48;3.70;;;;;;;23.21;39.13;101592.47;5093991;28;20048;-54
2022/08/28 11:03:59;;;;;;;14.13;3.30;;;;;;;23.30;39.40;101582.22;5109870;28;20050;-52
2022/08/28 11:06:35;;;;;;;16.70;3.70;;;;;;;23.38;38.84;101580.09;5110608;28;20096;-56
2022/08/28 11:09:38;;;;;;;10.55;3.20;;;;;;;23.91;38.32;101584.28;5110405;28;20069;-54
2022/08/28 11:11:56;;;;;;;;;;;;;;;23.90;37.69;101582.66;5109426;28;20052;-56
2022/08/28 11:14:45;;;;;;;20.02;3.85;;;;;;;24.36;37.27;101585.06;5110190;28;19972;-57
2022/08/28 11:17:35;;;;;;;19.13;3.55;;;;;;;24.09;37.61;101583.50;5110113;28;20500;-55
2022/08/28 11:20:23;;;;;;;17.38;3.80;;;;;;;24.31;37.18;101580.34;5120362;28;20070;-55
2022/08/28 11:23:04;;;;;;;16.83;3.42;;;;;;;24.62;36.66;101576.69;5089865;28;20282;-54
2022/08/28 11:25:53;;;;;;;11.80;2.95;;;;;;;24.48;36.59;101583.28;5130060;27;20040;-55
2022/08/28 11:28:36;;;;;;;11.88;3.25;;;;;;;24.80;36.26;101580.44;5130431;27;20050;-55
2022/08/28 11:33:51;;;;;;;14.02;3.35;;;;;;;24.78;35.96;101580.66;5111000;27;20059;-56
2022/08/28 11:41:37;;;;;;;15.38;3.38;;;;;;;24.84;36.28;101584.34;5110915;27;20384;-55
2022/08/28 11:46:48;;;;;;;16.92;3.45;;;;;;;24.61;35.53;101587.75;5151959;27;20131;-55
2022/08/28 11:58:28;;;;;;;14.85;3.28;;;;;;;24.43;35.89;101583.13;5110772;27;20347;-57
2022/08/28 12:01:07;;;;;;;14.98;2.97;;;;;;;24.68;35.15;101575.75;5110318;28;20066;-56
2022/08/28 12:03:39;;;;;;;12.80;3.13;;;;;;;24.45;35.69;101583.72;5110627;28;20044;-55
2022/08/28 12:06:07;;;;;;;16.50;3.40;;;;;;;24.91;36.04;101572.31;5110893;28;20085;-56
2022/08/28 12:17:23;;;;;;;11.95;3.13;;;;;;;24.90;35.37;101565.25;5110863;27;20362;-54
2022/08/28 12:20:16;;;;;;;12.02;3.28;;;;;;;24.94;35.12;101560.19;5110786;28;20047;-55
2022/08/28 12:22:48;;;;;;;12.32;2.95;;;;;;;24.76;34.92;101566.50;5072899;28;20067;-55
2022/08/28 12:25:28;;;;;;;15.35;3.50;;;;;;;24.66;35.69;101564.31;5110986;28;20546;-55
2022/08/28 12:27:57;;;;;;;15.40;2.92;;;;;;;24.67;35.54;101562.44;5111010;28;20067;-55